Time;durP1;ratioP1;P1;durP2;ratioP2;P2;SDS_P1;SDS_P2;PMS_P1;PMS_P2;Temp;Humidity;BMP_temperature;BMP_pressure;BME280_temperature;BME280_humidity;BME280_pressure;Samples;Min_cycle;Max_cycle;Signal;HPM_P1;HPM_P2
2021/09/18 00:01:13;;;;;;;10.93;4.80;;;;;;;;;;5021045;28;20050;-57
2021/09/18 00:03:43;;;;;;;11.63;5.45;;;;;;;;;;5043727;28;20038;-56
2021/09/18 00:06:12;;;;;;;14.90;4.95;;;;;;;;;;5056544;28;20037;-58
2021/09/18 00:08:38;;;;;;;12.85;5.38;;;;;;;;;;5042394;28;20088;-57
2021/09/18 00:11:05;;;;;;;10.32;5.50;;;;;;;;;;5037866;28;20046;-57
2021/09/18 00:13:33;;;;;;;9.65;5.15;;;;;;;;;;5058993;28;20041;-57
2021/09/18 00:15:59;;;;;;;10.87;5.50;;;;;;;;;;5040418;28;20033;-57
2021/09/18 00:18:25;;;;;;;13.20;5.72;;;;;;;;;;5060463;28;20277;-55
2021/09/18 00:20:53;;;;;;;9.95;5.45;;;;;;;;;;5046987;28;20045;-57
2021/09/18 00:23:20;;;;;;;12.50;5.65;;;;;;;;;;5042684;28;20037;-56
2021/09/18 00:25:47;;;;;;;13.00;5.50;;;;;;;;;;5040468;28;20040;-58
2021/09/18 00:28:13;;;;;;;10.68;5.60;;;;;;;;;;5061468;28;20087;-56
2021/09/18 00:30:40;;;;;;;11.98;6.20;;;;;;;;;;5078845;28;20048;-57
2021/09/18 00:33:06;;;;;;;16.75;6.65;;;;;;;;;;5080146;28;20048;-55
2021/09/18 00:35:33;;;;;;;12.27;6.07;;;;;;;;;;5076891;28;20049;-55
2021/09/18 00:38:00;;;;;;;12.65;6.03;;;;;;;;;;5080650;28;20043;-57
2021/09/18 00:40:27;;;;;;;11.93;6.20;;;;;;;;;;5071384;28;20025;-56
2021/09/18 00:42:53;;;;;;;10.65;6.10;;;;;;;;;;5077656;28;20289;-56
2021/09/18 00:45:20;;;;;;;11.10;6.65;;;;;;;;;;5063967;28;20043;-56
2021/09/18 00:47:47;;;;;;;14.25;5.78;;;;;;;;;;5059454;28;20041;-57
2021/09/18 00:50:13;;;;;;;11.90;5.60;;;;;;;;;;5081087;28;20037;-57
2021/09/18 00:52:40;;;;;;;12.85;5.88;;;;;;;;;;5077615;28;20048;-57
2021/09/18 00:55:08;;;;;;;10.82;6.10;;;;;;;;;;5079188;28;20029;-56
2021/09/18 00:57:35;;;;;;;12.35;5.78;;;;;;;;;;5076911;28;20056;-57
2021/09/18 01:00:03;;;;;;;13.32;6.00;;;;;;;;;;5081024;28;20048;-57
2021/09/18 01:02:29;;;;;;;11.88;6.00;;;;;;;;;;5079170;28;20040;-57
2021/09/18 01:04:58;;;;;;;13.68;5.97;;;;;;;;;;5067097;28;20049;-57
2021/09/18 01:07:25;;;;;;;11.98;5.85;;;;;;;;;;5060936;28;20122;-57
2021/09/18 01:09:51;;;;;;;11.80;5.82;;;;;;;;;;5080821;28;20037;-55
2021/09/18 01:12:19;;;;;;;12.35;5.50;;;;;;;;;;5076727;28;20033;-55
2021/09/18 01:14:46;;;;;;;9.50;5.10;;;;;;;;;;5064347;28;20044;-56
2021/09/18 01:17:14;;;;;;;10.75;5.60;;;;;;;;;;5077120;28;20122;-56
2021/09/18 01:19:43;;;;;;;11.43;5.63;;;;;;;;;;5078859;28;20089;-56
2021/09/18 01:22:09;;;;;;;;;;;;;;;;;;5077308;28;20056;-57
2021/09/18 01:24:38;;;;;;;11.40;5.13;;;;;;;;;;5060347;28;19928;-55
2021/09/18 01:27:04;;;;;;;;;;;;;;;;;;5072540;28;20052;-56
2021/09/18 01:29:31;;;;;;;11.95;5.32;;;;;;;;;;5062006;28;19935;-56
2021/09/18 01:31:57;;;;;;;13.80;5.75;;;;;;;;;;5078201;28;20041;-57
2021/09/18 01:34:25;;;;;;;11.85;5.63;;;;;;;;;;5076436;28;20045;-57
2021/09/18 01:36:52;;;;;;;12.50;5.40;;;;;;;;;;5063586;28;20041;-55
2021/09/18 01:39:21;;;;;;;13.63;6.03;;;;;;;;;;5080052;28;20020;-56
2021/09/18 01:41:49;;;;;;;9.88;5.40;;;;;;;;;;5053740;28;20029;-56
2021/09/18 01:44:17;;;;;;;13.13;6.18;;;;;;;;;;5059644;28;20040;-55
2021/09/18 01:46:44;;;;;;;12.15;5.97;;;;;;;;;;5045792;28;20033;-56
2021/09/18 01:49:12;;;;;;;11.77;6.35;;;;;;;;;;5047702;28;20048;-57
2021/09/18 01:51:40;;;;;;;15.27;5.78;;;;;;;;;;5078488;28;20044;-55
2021/09/18 01:54:07;;;;;;;12.63;5.72;;;;;;;;;;5060890;28;20052;-56
2021/09/18 01:56:33;;;;;;;13.45;5.90;;;;;;;;;;5062615;28;20064;-57
2021/09/18 01:59:01;;;;;;;10.23;5.38;;;;;;;;;;5059933;28;20056;-56
2021/09/18 02:01:27;;;;;;;11.00;5.90;;;;;;;;;;5079441;28;20051;-54
2021/09/18 02:03:54;;;;;;;11.65;5.90;;;;;;;;;;5077292;28;20040;-56
2021/09/18 02:06:20;;;;;;;12.95;5.68;;;;;;;;;;5079725;28;20037;-55
2021/09/18 02:08:47;;;;;;;11.70;5.47;;;;;;;;;;5077784;28;20057;-56
2021/09/18 02:11:13;;;;;;;9.95;5.38;;;;;;;;;;5078508;28;20096;-55
2021/09/18 02:13:40;;;;;;;11.52;5.05;;;;;;;;;;5082480;28;20055;-55
2021/09/18 02:16:08;;;;;;;14.93;4.78;;;;;;;;;;5061482;28;20064;-56
2021/09/18 02:18:34;;;;;;;12.85;5.22;;;;;;;;;;5065666;28;20042;-56
2021/09/18 02:21:01;;;;;;;12.27;4.72;;;;;;;;;;5058105;28;20048;-57
2021/09/18 02:23:28;;;;;;;10.95;4.72;;;;;;;;;;5078849;28;20064;-56
2021/09/18 02:25:55;;;;;;;14.93;4.90;;;;;;;;;;5076069;28;20051;-55
2021/09/18 02:28:22;;;;;;;9.32;4.78;;;;;;;;;;5063243;28;20040;-54
2021/09/18 02:30:48;;;;;;;10.57;5.40;;;;;;;;;;5059026;28;20056;-53
2021/09/18 02:33:16;;;;;;;9.25;4.53;;;;;;;;;;5078998;28;20048;-56
2021/09/18 02:35:44;;;;;;;11.05;5.25;;;;;;;;;;5075795;28;20048;-56
2021/09/18 02:38:10;;;;;;;8.70;4.85;;;;;;;;;;5080443;28;20041;-57
2021/09/18 02:40:39;;;;;;;15.02;5.15;;;;;;;;;;5080514;28;20037;-57
2021/09/18 02:43:05;;;;;;;10.20;4.72;;;;;;;;;;5064192;28;20090;-56
2021/09/18 02:45:32;;;;;;;9.48;4.90;;;;;;;;;;5059876;28;20057;-56
2021/09/18 02:47:58;;;;;;;10.75;4.47;;;;;;;;;;5077703;28;20051;-57
2021/09/18 02:50:26;;;;;;;12.30;4.72;;;;;;;;;;5077765;28;20098;-56
2021/09/18 02:52:53;;;;;;;11.18;5.30;;;;;;;;;;5073664;28;20048;-56
2021/09/18 02:55:19;;;;;;;11.45;5.15;;;;;;;;;;5060651;28;20053;-57
2021/09/18 02:57:46;;;;;;;8.98;4.57;;;;;;;;;;5076748;28;20043;-56
2021/09/18 03:00:13;;;;;;;10.63;5.20;;;;;;;;;;5065926;28;20044;-54
2021/09/18 03:02:39;;;;;;;10.40;4.57;;;;;;;;;;5064103;28;20126;-56
2021/09/18 03:05:07;;;;;;;10.57;4.95;;;;;;;;;;5043312;28;20045;-56
2021/09/18 03:07:35;;;;;;;10.47;4.77;;;;;;;;;;5038899;28;20062;-56
2021/09/18 03:10:01;;;;;;;9.70;4.70;;;;;;;;;;5078501;28;20055;-55
2021/09/18 03:12:28;;;;;;;12.30;4.65;;;;;;;;;;5062080;28;20044;-53
2021/09/18 03:14:54;;;;;;;9.20;4.30;;;;;;;;;;5064226;28;20037;-57
2021/09/18 03:17:21;;;;;;;8.32;4.30;;;;;;;;;;5059959;28;20047;-57
2021/09/18 03:19:47;;;;;;;11.10;4.50;;;;;;;;;;5082733;28;20050;-55
2021/09/18 03:22:14;;;;;;;12.13;4.30;;;;;;;;;;5058259;28;20060;-56
2021/09/18 03:24:43;;;;;;;10.32;4.07;;;;;;;;;;5061820;28;20057;-53
2021/09/18 03:27:14;;;;;;;7.88;4.00;;;;;;;;;;5075678;28;20029;-52
2021/09/18 03:29:40;;;;;;;9.15;4.30;;;;;;;;;;5062369;28;20048;-55
2021/09/18 03:32:07;;;;;;;13.50;5.00;;;;;;;;;;5078095;28;20045;-56
2021/09/18 03:34:33;;;;;;;7.82;4.13;;;;;;;;;;5074510;28;20048;-56
2021/09/18 03:37:02;;;;;;;10.13;4.22;;;;;;;;;;5078233;28;20134;-55
2021/09/18 03:39:28;;;;;;;7.53;3.95;;;;;;;;;;5060397;28;20044;-54
2021/09/18 03:41:56;;;;;;;12.90;4.82;;;;;;;;;;5061137;28;20049;-56
2021/09/18 03:44:23;;;;;;;8.67;4.50;;;;;;;;;;5074670;28;20045;-55
2021/09/18 03:46:50;;;;;;;8.35;4.72;;;;;;;;;;5077459;28;20041;-57
2021/09/18 03:49:17;;;;;;;11.77;4.35;;;;;;;;;;5077441;28;20047;-56
2021/09/18 03:51:43;;;;;;;9.38;4.15;;;;;;;;;;5064485;28;20040;-57
2021/09/18 03:54:10;;;;;;;8.45;4.10;;;;;;;;;;5076954;28;20063;-58
2021/09/18 03:56:36;;;;;;;10.38;4.28;;;;;;;;;;5062817;28;20051;-56
2021/09/18 03:59:04;;;;;;;11.35;4.32;;;;;;;;;;5079867;28;20048;-57
2021/09/18 04:01:31;;;;;;;9.65;3.88;;;;;;;;;;5063007;28;20028;-56
2021/09/18 04:03:59;;;;;;;10.55;4.57;;;;;;;;;;5058386;28;20028;-56
2021/09/18 04:06:28;;;;;;;9.68;4.18;;;;;;;;;;5077525;28;20056;-56
2021/09/18 04:08:54;;;;;;;11.90;4.55;;;;;;;;;;5077607;28;20059;-56
2021/09/18 04:11:20;;;;;;;9.68;4.53;;;;;;;;;;5065308;28;20036;-56
2021/09/18 04:13:51;;;;;;;11.00;4.47;;;;;;;;;;5081568;28;20025;-56
2021/09/18 04:16:19;;;;;;;12.20;4.03;;;;;;;;;;5064919;28;20077;-56
2021/09/18 04:18:45;;;;;;;8.13;4.40;;;;;;;;;;5081152;28;20048;-57
2021/09/18 04:21:11;;;;;;;7.93;3.75;;;;;;;;;;5078285;28;20047;-57
2021/09/18 04:23:38;;;;;;;8.57;4.10;;;;;;;;;;5080629;28;20047;-57
2021/09/18 04:26:04;;;;;;;8.68;3.80;;;;;;;;;;5065859;28;20047;-57
2021/09/18 04:28:31;;;;;;;8.98;4.40;;;;;;;;;;5064562;28;20029;-56
2021/09/18 04:30:58;;;;;;;7.43;3.60;;;;;;;;;;5052901;28;20044;-56
2021/09/18 04:33:30;;;;;;;9.20;4.25;;;;;;;;;;5080561;28;20061;-56
2021/09/18 04:35:56;;;;;;;8.98;3.88;;;;;;;;;;5078568;28;20033;-57
2021/09/18 04:38:23;;;;;;;8.93;4.00;;;;;;;;;;5067186;28;20048;-56
2021/09/18 04:40:49;;;;;;;8.13;3.95;;;;;;;;;;5062801;28;20036;-56
2021/09/18 04:43:16;;;;;;;9.63;3.70;;;;;;;;;;5066112;28;20121;-56
2021/09/18 04:45:43;;;;;;;9.00;4.18;;;;;;;;;;5041862;28;20057;-57
2021/09/18 04:48:12;;;;;;;7.47;3.92;;;;;;;;;;5044022;28;20045;-54
2021/09/18 04:50:40;;;;;;;10.73;3.85;;;;;;;;;;5049585;28;20060;-56
2021/09/18 04:53:07;;;;;;;8.68;3.75;;;;;;;;;;5073961;28;20090;-56
2021/09/18 04:55:33;;;;;;;8.18;4.15;;;;;;;;;;5061965;28;20171;-56
2021/09/18 04:57:59;;;;;;;8.38;3.85;;;;;;;;;;5078683;28;20049;-56
2021/09/18 05:00:26;;;;;;;8.77;4.03;;;;;;;;;;5080501;28;20040;-56
2021/09/18 05:02:52;;;;;;;9.25;3.65;;;;;;;;;;5058258;28;20055;-56
2021/09/18 05:05:19;;;;;;;9.05;3.90;;;;;;;;;;5065732;28;20101;-56
2021/09/18 05:07:47;;;;;;;7.82;3.63;;;;;;;;;;5064798;28;20041;-56
2021/09/18 05:10:13;;;;;;;6.93;3.33;;;;;;;;;;5081112;28;20036;-56
2021/09/18 05:12:40;;;;;;;9.05;3.97;;;;;;;;;;5081797;28;20309;-57
2021/09/18 05:15:09;;;;;;;7.55;3.60;;;;;;;;;;5048133;28;20037;-56
2021/09/18 05:17:35;;;;;;;10.68;3.92;;;;;;;;;;5051157;28;20045;-56
2021/09/18 05:20:02;;;;;;;11.95;3.38;;;;;;;;;;5043035;28;20044;-55
2021/09/18 05:22:28;;;;;;;14.10;3.92;;;;;;;;;;5013885;28;20040;-54
2021/09/18 05:24:57;;;;;;;8.13;3.78;;;;;;;;;;5026057;28;20056;-56
2021/09/18 05:27:23;;;;;;;8.52;3.30;;;;;;;;;;5023593;28;20037;-55
2021/09/18 05:29:49;;;;;;;10.00;3.70;;;;;;;;;;5062345;28;20045;-55
2021/09/18 05:32:18;;;;;;;7.80;3.33;;;;;;;;;;5058959;28;20045;-56
2021/09/18 05:34:45;;;;;;;8.80;3.80;;;;;;;;;;5083335;28;20055;-56
2021/09/18 05:37:11;;;;;;;9.60;3.85;;;;;;;;;;5058744;28;20048;-56
2021/09/18 05:39:38;;;;;;;9.50;3.83;;;;;;;;;;5025359;28;20037;-56
2021/09/18 05:42:08;;;;;;;11.18;4.00;;;;;;;;;;5054650;28;20044;-56
2021/09/18 05:44:35;;;;;;;8.68;4.22;;;;;;;;;;5024149;28;20111;-56
2021/09/18 05:47:01;;;;;;;9.55;4.10;;;;;;;;;;5077318;28;20110;-55
2021/09/18 05:49:28;;;;;;;14.13;4.53;;;;;;;;;;5035726;28;20033;-56
2021/09/18 05:51:54;;;;;;;10.95;4.13;;;;;;;;;;5048064;28;20108;-56
2021/09/18 05:54:21;;;;;;;11.30;3.85;;;;;;;;;;5041323;28;20047;-56
2021/09/18 05:56:48;;;;;;;11.93;3.72;;;;;;;;;;5059196;28;20154;-56
2021/09/18 05:59:15;;;;;;;16.30;4.15;;;;;;;;;;5041518;28;20056;-56
2021/09/18 06:01:42;;;;;;;14.37;4.07;;;;;;;;;;5063401;28;20051;-55
2021/09/18 06:04:09;;;;;;;11.32;4.18;;;;;;;;;;5048819;28;20106;-53
2021/09/18 06:06:36;;;;;;;13.88;4.10;;;;;;;;;;5083713;28;20052;-56
2021/09/18 06:09:02;;;;;;;9.50;3.75;;;;;;;;;;5077202;28;20060;-56
2021/09/18 06:11:29;;;;;;;12.02;3.65;;;;;;;;;;5060506;28;20044;-56
2021/09/18 06:13:55;;;;;;;10.20;3.80;;;;;;;;;;5052880;28;20052;-56
2021/09/18 06:16:24;;;;;;;11.40;3.97;;;;;;;;;;5042782;28;20045;-55
2021/09/18 06:18:50;;;;;;;10.05;3.78;;;;;;;;;;5034866;28;20052;-56
2021/09/18 06:21:17;;;;;;;9.65;3.92;;;;;;;;;;5036872;28;20121;-58
2021/09/18 06:23:44;;;;;;;11.23;4.45;;;;;;;;;;5045020;28;20041;-55
2021/09/18 06:26:10;;;;;;;11.68;4.75;;;;;;;;;;5049295;28;20037;-55
2021/09/18 06:28:36;;;;;;;12.23;5.03;;;;;;;;;;5054599;28;20045;-54
2021/09/18 06:31:04;;;;;;;13.05;4.93;;;;;;;;;;5040659;28;20033;-56
2021/09/18 06:33:32;;;;;;;11.75;4.68;;;;;;;;;;5041357;28;20041;-55
2021/09/18 06:36:02;;;;;;;;;;;;;;;;;;5033181;28;20045;-55
2021/09/18 06:38:28;;;;;;;14.43;4.93;;;;;;;;;;5060786;28;19927;-56
2021/09/18 06:40:58;;;;;;;19.48;7.78;;;;;;;;;;5049376;28;20053;-55
2021/09/18 06:43:28;;;;;;;17.35;7.57;;;;;;;;;;5061727;28;20045;-56
2021/09/18 06:45:54;;;;;;;14.98;6.07;;;;;;;;;;5049038;28;20051;-56
2021/09/18 06:48:21;;;;;;;13.80;5.60;;;;;;;;;;5063606;28;20043;-56
2021/09/18 06:50:48;;;;;;;10.07;5.13;;;;;;;;;;5060534;28;20060;-56
2021/09/18 06:53:18;;;;;;;11.95;5.85;;;;;;;;;;5061724;28;20055;-54
2021/09/18 06:55:45;;;;;;;12.27;5.85;;;;;;;;;;5059232;28;20048;-56
2021/09/18 06:58:12;;;;;;;11.07;5.32;;;;;;;;;;5080790;28;20056;-56
2021/09/18 07:00:38;;;;;;;15.23;5.82;;;;;;;;;;5058503;28;20036;-56
2021/09/18 07:03:05;;;;;;;14.18;6.13;;;;;;;;;;5063068;28;20131;-55
2021/09/18 07:05:31;;;;;;;10.88;4.90;;;;;;;;;;5078491;28;20058;-56
2021/09/18 07:07:59;;;;;;;12.80;5.78;;;;;;;;;;5079983;28;20040;-55
2021/09/18 07:10:26;;;;;;;12.97;5.87;;;;;;;;;;5063503;28;20036;-56
2021/09/18 07:12:55;;;;;;;13.32;6.38;;;;;;;;;;5060230;28;20041;-57
2021/09/18 07:15:21;;;;;;;14.52;6.30;;;;;;;;;;5061967;28;20052;-56
2021/09/18 07:17:48;;;;;;;12.60;6.28;;;;;;;;;;5059477;28;20045;-56
2021/09/18 07:20:14;;;;;;;15.77;7.00;;;;;;;;;;5083210;28;20088;-55
2021/09/18 07:22:41;;;;;;;14.13;6.30;;;;;;;;;;5079606;28;20040;-54
2021/09/18 07:25:17;;;;;;;15.85;6.75;;;;;;;;;;5066362;28;20036;-56
2021/09/18 07:27:47;;;;;;;13.02;5.85;;;;;;;;;;5047478;28;20050;-56
2021/09/18 07:30:13;;;;;;;19.13;6.95;;;;;;;;;;5059049;28;20056;-56
2021/09/18 07:32:40;;;;;;;24.63;11.88;;;;;;;;;;5038984;28;20041;-57
2021/09/18 07:35:06;;;;;;;25.98;13.60;;;;;;;;;;5042117;28;20037;-56
2021/09/18 07:37:34;;;;;;;24.33;12.32;;;;;;;;;;5044506;28;20055;-56
2021/09/18 07:40:01;;;;;;;22.75;10.32;;;;;;;;;;5060450;28;20044;-56
2021/09/18 07:42:29;;;;;;;20.30;9.93;;;;;;;;;;5041521;28;20034;-56
2021/09/18 07:44:55;;;;;;;16.77;8.30;;;;;;;;;;5042285;28;20045;-57
2021/09/18 07:47:22;;;;;;;16.33;7.50;;;;;;;;;;5053632;28;20048;-55
2021/09/18 07:49:48;;;;;;;13.07;6.50;;;;;;;;;;5042364;28;20052;-56
2021/09/18 07:52:16;;;;;;;13.00;6.03;;;;;;;;;;5035669;28;20040;-56
2021/09/18 07:54:44;;;;;;;13.48;6.05;;;;;;;;;;5060610;28;20417;-56
2021/09/18 07:57:10;;;;;;;11.30;6.10;;;;;;;;;;5063735;28;20134;-54
2021/09/18 07:59:38;;;;;;;11.60;6.15;;;;;;;;;;5043151;28;20048;-56
2021/09/18 08:02:05;;;;;;;12.27;6.33;;;;;;;;;;5045636;28;20052;-56
2021/09/18 08:04:31;;;;;;;13.80;6.18;;;;;;;;;;5050553;28;20306;-55
2021/09/18 08:06:58;;;;;;;10.77;5.57;;;;;;;;;;5043730;28;20048;-56
2021/09/18 08:09:24;;;;;;;11.15;5.47;;;;;;;;;;5052424;28;20056;-55
2021/09/18 08:11:51;;;;;;;12.40;5.93;;;;;;;;;;5063890;28;20037;-56
2021/09/18 08:14:18;;;;;;;14.43;5.75;;;;;;;;;;5051524;28;20048;-56
2021/09/18 08:16:45;;;;;;;13.07;6.50;;;;;;;;;;5059235;28;20041;-62
2021/09/18 08:19:12;;;;;;;13.53;5.93;;;;;;;;;;5062072;28;20199;-56
2021/09/18 08:21:38;;;;;;;12.40;5.68;;;;;;;;;;5063471;28;20025;-54
2021/09/18 08:24:06;;;;;;;13.85;5.90;;;;;;;;;;5055681;28;20029;-56
2021/09/18 08:26:40;;;;;;;12.60;6.07;;;;;;;;;;5046086;28;20045;-54
2021/09/18 08:29:09;;;;;;;13.63;6.47;;;;;;;;;;5055844;28;20044;-57
2021/09/18 08:31:35;;;;;;;13.98;6.50;;;;;;;;;;5055458;28;20037;-56
2021/09/18 08:34:03;;;;;;;12.48;6.57;;;;;;;;;;5058219;28;20065;-56
2021/09/18 08:36:29;;;;;;;15.60;7.33;;;;;;;;;;5080624;28;20045;-56
2021/09/18 08:38:56;;;;;;;17.40;6.55;;;;;;;;;;5065414;28;20049;-56
2021/09/18 08:41:22;;;;;;;13.57;6.75;;;;;;;;;;5077279;28;20093;-55
2021/09/18 08:43:49;;;;;;;17.17;7.28;;;;;;;;;;5062881;28;20040;-54
2021/09/18 08:46:17;;;;;;;17.17;8.07;;;;;;;;;;5059539;28;20052;-56
2021/09/18 08:48:44;;;;;;;16.15;8.27;;;;;;;;;;5063788;28;20028;-57
2021/09/18 08:51:12;;;;;;;15.63;7.88;;;;;;;;;;5076286;28;20033;-58
2021/09/18 08:53:39;;;;;;;16.67;7.65;;;;;;;;;;5063943;28;20033;-55
2021/09/18 08:56:06;;;;;;;14.15;6.78;;;;;;;;;;5060066;28;20048;-57
2021/09/18 08:58:32;;;;;;;17.10;8.45;;;;;;;;;;5065252;28;20052;-56
2021/09/18 09:00:59;;;;;;;16.55;9.05;;;;;;;;;;5061601;28;20045;-57
2021/09/18 09:03:27;;;;;;;22.70;9.13;;;;;;;;;;5064866;28;20032;-56
2021/09/18 09:05:58;;;;;;;19.02;8.57;;;;;;;;;;5076542;28;20041;-57
2021/09/18 09:08:26;;;;;;;16.88;8.95;;;;;;;;;;5079215;28;20052;-56
2021/09/18 09:10:53;;;;;;;17.80;8.03;;;;;;;;;;5076319;28;20130;-56
2021/09/18 09:13:20;;;;;;;14.85;7.97;;;;;;;;;;5079656;28;20056;-57
2021/09/18 09:15:47;;;;;;;16.25;8.15;;;;;;;;;;5076048;28;20052;-58
2021/09/18 09:18:15;;;;;;;14.88;8.13;;;;;;;;;;5063063;28;20037;-57
2021/09/18 09:20:41;;;;;;;16.05;7.85;;;;;;;;;;5078909;28;20033;-57
2021/09/18 09:23:14;;;;;;;15.73;7.57;;;;;;;;;;5061016;28;20040;-57
2021/09/18 09:25:49;;;;;;;17.13;8.85;;;;;;;;;;5078258;28;20032;-57
2021/09/18 09:28:24;;;;;;;19.88;9.05;;;;;;;;;;5076256;28;20053;-57
2021/09/18 09:30:50;;;;;;;17.25;8.15;;;;;;;;;;5063506;28;20074;-57
2021/09/18 09:33:17;;;;;;;14.55;8.10;;;;;;;;;;5042707;28;20096;-56
2021/09/18 09:35:44;;;;;;;18.10;8.95;;;;;;;;;;5041751;28;20041;-58
2021/09/18 09:38:11;;;;;;;14.13;8.07;;;;;;;;;;5038570;28;20048;-57
2021/09/18 09:40:38;;;;;;;18.88;8.35;;;;;;;;;;5061370;28;20041;-57
2021/09/18 09:43:10;;;;;;;15.90;8.25;;;;;;;;;;5059724;28;20048;-58
2021/09/18 09:45:37;;;;;;;18.13;8.88;;;;;;;;;;5061543;28;20117;-57
2021/09/18 09:48:05;;;;;;;17.98;9.60;;;;;;;;;;5047180;28;20045;-57
2021/09/18 09:50:32;;;;;;;19.85;10.02;;;;;;;;;;5040803;28;20045;-57
2021/09/18 09:52:59;;;;;;;17.02;9.60;;;;;;;;;;5048366;28;20029;-58
2021/09/18 09:55:26;;;;;;;18.83;10.07;;;;;;;;;;5061705;28;20052;-57
2021/09/18 09:57:59;;;;;;;18.73;9.20;;;;;;;;;;5059330;28;20045;-57
2021/09/18 10:00:37;;;;;;;17.13;9.35;;;;;;;;;;5052606;28;20049;-58
2021/09/18 10:03:04;;;;;;;18.70;10.00;;;;;;;;;;5024018;28;20107;-58
2021/09/18 10:05:31;;;;;;;18.25;9.45;;;;;;;;;;5042798;28;20048;-56
2021/09/18 10:07:59;;;;;;;18.92;10.15;;;;;;;;;;5037804;28;20050;-56
2021/09/18 10:10:26;;;;;;;21.85;11.32;;;;;;;;;;5058728;28;20056;-57
2021/09/18 10:12:52;;;;;;;18.35;9.73;;;;;;;;;;5055968;28;20096;-57
2021/09/18 10:15:24;;;;;;;20.88;10.75;;;;;;;;;;5043799;28;20041;-58
2021/09/18 10:17:53;;;;;;;18.58;9.32;;;;;;;;;;5041250;28;20056;-57
2021/09/18 10:23:13;;;;;;;;;;;;;;;;;;5037692;28;20056;-57
2021/09/18 10:23:17;;;;;;;18.52;9.48;;;;;;;;;;5039220;28;19986;-57
2021/09/18 10:25:47;;;;;;;16.02;8.18;;;;;;;;;;5040918;28;20052;-58
2021/09/18 10:28:14;;;;;;;18.02;8.80;;;;;;;;;;5058448;28;20065;-58
2021/09/18 10:30:56;;;;;;;16.93;8.83;;;;;;;;;;5051022;28;20039;-57
2021/09/18 10:33:34;;;;;;;15.45;8.20;;;;;;;;;;5063184;28;20029;-58
2021/09/18 10:36:02;;;;;;;18.23;10.20;;;;;;;;;;5041564;28;20041;-58
2021/09/18 10:38:29;;;;;;;25.55;11.77;;;;;;;;;;5032288;28;20045;-58
2021/09/18 10:40:59;;;;;;;18.83;10.57;;;;;;;;;;5041821;28;20043;-58
2021/09/18 10:43:28;;;;;;;13.95;6.95;;;;;;;;;;5061751;28;20041;-58
2021/09/18 10:45:54;;;;;;;;;;;;;;;;;;5056969;28;20045;-58
2021/09/18 10:48:40;;;;;;;12.32;7.00;;;;;;;;;;5062136;28;19920;-58
2021/09/18 10:51:08;;;;;;;11.90;6.40;;;;;;;;;;5056715;28;20052;-58
2021/09/18 10:53:50;;;;;;;11.60;5.60;;;;;;;;;;5063589;28;20032;-58
2021/09/18 10:56:17;;;;;;;7.82;4.60;;;;;;;;;;5054075;28;20028;-58
2021/09/18 10:59:05;;;;;;;34.08;7.80;;;;;;;;;;5061496;28;20094;-58
2021/09/18 11:01:31;;;;;;;10.80;5.60;;;;;;;;;;5073899;28;20052;-57
2021/09/18 11:03:59;;;;;;;12.23;5.88;;;;;;;;;;5078867;28;20044;-58
2021/09/18 11:06:37;;;;;;;16.55;5.78;;;;;;;;;;5056280;28;20052;-58
2021/09/18 11:09:04;;;;;;;9.50;4.47;;;;;;;;;;5061130;28;20285;-58
2021/09/18 11:11:31;;;;;;;19.48;5.40;;;;;;;;;;5072401;28;20048;-58
2021/09/18 11:14:00;;;;;;;9.25;4.85;;;;;;;;;;5061759;28;20044;-58
2021/09/18 11:16:27;;;;;;;10.77;5.43;;;;;;;;;;5056954;28;20117;-58
2021/09/18 11:19:00;;;;;;;8.70;4.38;;;;;;;;;;5060933;28;20056;-58
2021/09/18 11:21:27;;;;;;;10.80;4.88;;;;;;;;;;5074095;28;20047;-59
2021/09/18 11:23:55;;;;;;;9.75;5.05;;;;;;;;;;5063388;28;20133;-59
2021/09/18 11:26:33;;;;;;;8.48;4.40;;;;;;;;;;5072042;28;20041;-58
2021/09/18 11:29:10;;;;;;;10.18;5.20;;;;;;;;;;5059295;28;20044;-59
2021/09/18 11:31:36;;;;;;;9.65;4.20;;;;;;;;;;5063976;28;20131;-58
2021/09/18 11:34:07;;;;;;;9.50;4.43;;;;;;;;;;5063086;28;20063;-58
2021/09/18 11:36:42;;;;;;;7.75;4.07;;;;;;;;;;5077276;28;20104;-58
2021/09/18 11:39:09;;;;;;;8.68;4.70;;;;;;;;;;5064129;28;20133;-58
2021/09/18 11:41:35;;;;;;;8.15;4.30;;;;;;;;;;5062929;28;20062;-59
2021/09/18 11:44:07;;;;;;;8.85;4.88;;;;;;;;;;5081321;28;20044;-58
2021/09/18 11:46:34;;;;;;;10.30;4.63;;;;;;;;;;5077153;28;20041;-58
2021/09/18 11:49:01;;;;;;;9.65;4.68;;;;;;;;;;5081399;28;20102;-59
2021/09/18 11:51:29;;;;;;;11.05;4.78;;;;;;;;;;5079992;28;20045;-59
2021/09/18 11:54:00;;;;;;;11.38;5.85;;;;;;;;;;5062329;28;20048;-58
2021/09/18 11:56:26;;;;;;;9.45;5.20;;;;;;;;;;5052750;28;20041;-59
2021/09/18 11:58:53;;;;;;;11.02;5.32;;;;;;;;;;5061323;28;20029;-58
2021/09/18 12:01:19;;;;;;;8.65;4.35;;;;;;;;;;5065769;28;20041;-59
2021/09/18 12:03:46;;;;;;;11.75;5.40;;;;;;;;;;5075126;28;20048;-59
2021/09/18 12:06:14;;;;;;;12.65;6.45;;;;;;;;;;5061467;28;20041;-59
2021/09/18 12:08:43;;;;;;;15.00;6.57;;;;;;;;;;5059899;28;20044;-59
2021/09/18 12:11:12;;;;;;;16.10;6.63;;;;;;;;;;5079400;28;20044;-59
2021/09/18 12:13:39;;;;;;;15.48;7.57;;;;;;;;;;5059132;28;20036;-59
2021/09/18 12:16:06;;;;;;;16.20;8.15;;;;;;;;;;5082167;28;20045;-59
2021/09/18 12:18:34;;;;;;;17.38;9.05;;;;;;;;;;5076949;28;20048;-60
2021/09/18 12:21:01;;;;;;;18.55;8.43;;;;;;;;;;5064590;28;20134;-59
2021/09/18 12:23:28;;;;;;;18.77;10.07;;;;;;;;;;5078434;28;20041;-58
2021/09/18 12:25:58;;;;;;;20.55;9.80;;;;;;;;;;5064326;28;20033;-64
2021/09/18 12:28:24;;;;;;;25.73;9.30;;;;;;;;;;5077007;28;20037;-62
2021/09/18 12:30:51;;;;;;;21.45;9.93;;;;;;;;;;5065171;28;20048;-59
2021/09/18 12:33:28;;;;;;;19.08;8.35;;;;;;;;;;5076612;28;20033;-59
2021/09/18 12:36:02;;;;;;;18.17;9.20;;;;;;;;;;5080806;28;20041;-59
2021/09/18 12:38:29;;;;;;;18.27;10.18;;;;;;;;;;5059638;28;20037;-60
2021/09/18 12:41:00;;;;;;;19.60;10.20;;;;;;;;;;5048174;28;20090;-60
2021/09/18 12:43:27;;;;;;;18.58;10.10;;;;;;;;;;5063232;28;20134;-59
2021/09/18 12:46:04;;;;;;;21.77;10.25;;;;;;;;;;5059251;28;20045;-59
2021/09/18 12:48:30;;;;;;;22.50;10.98;;;;;;;;;;5072299;28;20059;-59
2021/09/18 12:51:01;;;;;;;22.95;9.95;;;;;;;;;;5058439;28;20037;-59
2021/09/18 12:53:29;;;;;;;18.73;9.05;;;;;;;;;;5062936;28;20068;-59
2021/09/18 12:56:17;;;;;;;25.30;11.10;;;;;;;;;;5058814;28;20077;-58
2021/09/18 12:58:44;;;;;;;21.00;10.38;;;;;;;;;;5061445;28;20043;-59
2021/09/18 13:01:12;;;;;;;26.75;11.40;;;;;;;;;;5065512;28;20057;-60
2021/09/18 13:03:39;;;;;;;23.23;10.02;;;;;;;;;;5066151;28;20051;-59
2021/09/18 13:06:06;;;;;;;22.88;11.07;;;;;;;;;;5058488;28;20040;-59
2021/09/18 13:08:43;;;;;;;17.42;9.10;;;;;;;;;;5063335;28;20048;-59
2021/09/18 13:11:10;;;;;;;13.77;6.93;;;;;;;;;;5075649;28;20049;-59
2021/09/18 13:13:39;;;;;;;15.45;6.95;;;;;;;;;;5063455;28;20029;-60
2021/09/18 13:16:06;;;;;;;15.13;7.28;;;;;;;;;;5060811;28;20053;-60
2021/09/18 13:18:32;;;;;;;13.35;7.05;;;;;;;;;;5077670;28;20048;-59
2021/09/18 13:20:59;;;;;;;17.50;7.63;;;;;;;;;;5076804;28;20047;-60
2021/09/18 13:23:27;;;;;;;;;;;;;;;;;;5064477;28;20037;-59
2021/09/18 13:25:54;;;;;;;18.00;7.07;;;;;;;;;;5059121;28;19921;-59
2021/09/18 13:28:24;;;;;;;14.57;6.72;;;;;;;;;;5079328;28;20044;-59
2021/09/18 13:30:52;;;;;;;12.00;6.32;;;;;;;;;;5072677;28;20053;-60
2021/09/18 13:33:19;;;;;;;11.85;6.07;;;;;;;;;;5061264;28;20045;-60
2021/09/18 13:35:45;;;;;;;10.77;5.50;;;;;;;;;;5058660;28;20120;-59
2021/09/18 13:38:12;;;;;;;9.45;5.15;;;;;;;;;;5078373;28;20049;-59
2021/09/18 13:40:40;;;;;;;11.68;5.50;;;;;;;;;;5078211;28;20064;-59
2021/09/18 13:43:07;;;;;;;13.63;5.57;;;;;;;;;;5061386;28;20130;-59
2021/09/18 13:45:34;;;;;;;9.73;4.75;;;;;;;;;;5064339;28;20055;-59
2021/09/18 13:48:02;;;;;;;12.25;5.55;;;;;;;;;;5072599;28;20037;-59
2021/09/18 13:50:28;;;;;;;11.98;4.50;;;;;;;;;;5062579;28;20101;-59
2021/09/18 13:52:55;;;;;;;10.32;4.78;;;;;;;;;;5058471;28;20048;-59
2021/09/18 13:55:22;;;;;;;8.18;4.05;;;;;;;;;;5063813;28;20045;-59
2021/09/18 13:57:48;;;;;;;9.90;4.35;;;;;;;;;;5056733;28;20028;-59
2021/09/18 14:00:14;;;;;;;13.35;4.85;;;;;;;;;;5061438;28;20040;-60
2021/09/18 14:02:42;;;;;;;8.38;4.00;;;;;;;;;;5061907;28;20058;-60
2021/09/18 14:05:11;;;;;;;8.35;4.50;;;;;;;;;;5059300;28;20037;-59
2021/09/18 14:07:38;;;;;;;8.75;3.95;;;;;;;;;;5057908;28;20044;-59
2021/09/18 14:10:04;;;;;;;6.97;3.58;;;;;;;;;;5066174;28;20105;-60
2021/09/18 14:12:31;;;;;;;7.88;3.78;;;;;;;;;;5055631;28;20049;-59
2021/09/18 14:14:58;;;;;;;11.25;3.28;;;;;;;;;;5061725;28;20025;-60
2021/09/18 14:17:24;;;;;;;7.22;3.47;;;;;;;;;;5056086;28;20065;-60
2021/09/18 14:19:51;;;;;;;8.82;3.20;;;;;;;;;;5059408;28;20052;-60
2021/09/18 14:22:18;;;;;;;6.78;3.42;;;;;;;;;;5062159;28;20138;-58
2021/09/18 14:24:45;;;;;;;7.18;3.50;;;;;;;;;;5058551;28;20183;-60
2021/09/18 14:27:11;;;;;;;7.13;3.33;;;;;;;;;;5060666;28;20037;-60
2021/09/18 14:29:38;;;;;;;5.75;3.05;;;;;;;;;;5056741;28;20064;-59
2021/09/18 14:32:05;;;;;;;10.90;3.80;;;;;;;;;;5063536;28;20042;-59
2021/09/18 14:34:31;;;;;;;7.22;3.80;;;;;;;;;;5048588;28;20041;-59
2021/09/18 14:37:00;;;;;;;10.13;4.03;;;;;;;;;;5060890;28;20101;-60